sensor_id;sensor_type;location;lat;lon;timestamp;pressure;altitude;pressure_sealevel;temperature;humidity
84199;BME280;74337;46.510;6.668;2024-01-06T15:39:59;95968.84;;;5.28;79.05
84199;BME280;74337;46.510;6.668;2024-01-06T15:42:47;95971.53;;;5.28;78.75
84199;BME280;74337;46.510;6.668;2024-01-06T15:45:33;95969.09;;;5.31;79.39
84199;BME280;74337;46.510;6.668;2024-01-06T15:58:31;95967.41;;;5.17;78.07
84199;BME280;74337;46.510;6.668;2024-01-06T16:01:33;95965.59;;;5.12;79.09
84199;BME280;74337;46.510;6.668;2024-01-06T16:07:54;95966.44;;;5.07;76.41
84199;BME280;74337;46.510;6.668;2024-01-06T16:10:36;95962.91;;;5.12;78.87
84199;BME280;74337;46.510;6.668;2024-01-06T16:13:41;95962.34;;;5.15;79.11
84199;BME280;74337;46.510;6.668;2024-01-06T16:16:30;95968.19;;;5.17;78.83
84199;BME280;74337;46.510;6.668;2024-01-06T16:23:17;95966.22;;;5.04;78.27
84199;BME280;74337;46.510;6.668;2024-01-06T16:37:05;95984.63;;;5.05;79.04
84199;BME280;74337;46.510;6.668;2024-01-06T16:43:43;95990.66;;;4.92;79.19
84199;BME280;74337;46.510;6.668;2024-01-06T16:50:29;95993.06;;;4.88;79.15
84199;BME280;74337;46.510;6.668;2024-01-06T16:53:35;95993.97;;;4.79;78.22
84199;BME280;74337;46.510;6.668;2024-01-06T16:56:44;95990.69;;;4.87;78.00
84199;BME280;74337;46.510;6.668;2024-01-06T16:59:40;95999.22;;;4.89;77.47
84199;BME280;74337;46.510;6.668;2024-01-06T17:02:34;95998.69;;;4.87;78.61
84199;BME280;74337;46.510;6.668;2024-01-06T17:05:31;95989.81;;;4.92;78.65
84199;BME280;74337;46.510;6.668;2024-01-06T17:12:03;96000.00;;;4.90;79.23
84199;BME280;74337;46.510;6.668;2024-01-06T17:15:26;96001.81;;;4.94;79.05
84199;BME280;74337;46.510;6.668;2024-01-06T17:18:27;96013.34;;;4.90;78.76
84199;BME280;74337;46.510;6.668;2024-01-06T17:21:21;96014.41;;;4.88;78.34
84199;BME280;74337;46.510;6.668;2024-01-06T17:27:49;96021.00;;;4.96;79.28
84199;BME280;74337;46.510;6.668;2024-01-06T17:30:40;96018.91;;;4.93;79.28
84199;BME280;74337;46.510;6.668;2024-01-06T17:33:40;96016.00;;;4.90;78.20
84199;BME280;74337;46.510;6.668;2024-01-06T17:36:56;96020.72;;;4.98;78.40
84199;BME280;74337;46.510;6.668;2024-01-06T17:50:35;96033.50;;;5.01;78.48
84199;BME280;74337;46.510;6.668;2024-01-06T17:53:28;96035.88;;;5.02;77.05
84199;BME280;74337;46.510;6.668;2024-01-06T17:56:28;96038.34;;;4.99;78.38
84199;BME280;74337;46.510;6.668;2024-01-06T17:59:32;96032.84;;;4.85;78.15
84199;BME280;74337;46.510;6.668;2024-01-06T18:02:40;96039.28;;;4.84;79.16
84199;BME280;74337;46.510;6.668;2024-01-06T18:05:41;96036.59;;;4.84;78.54
84199;BME280;74337;46.510;6.668;2024-01-06T18:09:19;96026.28;;;4.77;78.14
84199;BME280;74337;46.510;6.668;2024-01-06T18:15:42;96032.84;;;4.85;77.74
84199;BME280;74337;46.510;6.668;2024-01-06T18:19:04;96029.91;;;4.86;76.99
84199;BME280;74337;46.510;6.668;2024-01-06T18:22:25;96031.09;;;4.75;77.72
84199;BME280;74337;46.510;6.668;2024-01-06T18:25:25;96028.38;;;4.80;78.32
84199;BME280;74337;46.510;6.668;2024-01-06T18:28:14;96030.41;;;4.88;78.61
84199;BME280;74337;46.510;6.668;2024-01-06T18:31:15;96026.91;;;4.93;78.50
84199;BME280;74337;46.510;6.668;2024-01-06T18:33:52;96016.59;;;4.86;77.37
84199;BME280;74337;46.510;6.668;2024-01-06T18:36:33;96026.28;;;4.77;78.60
84199;BME280;74337;46.510;6.668;2024-01-06T18:39:07;96027.25;;;4.86;79.22
84199;BME280;74337;46.510;6.668;2024-01-06T18:42:06;96020.09;;;4.82;79.22
84199;BME280;74337;46.510;6.668;2024-01-06T18:44:44;96025.00;;;4.70;79.09
84199;BME280;74337;46.510;6.668;2024-01-06T18:47:35;96022.84;;;4.72;78.82
84199;BME280;74337;46.510;6.668;2024-01-06T18:50:21;96021.09;;;4.62;77.31
84199;BME280;74337;46.510;6.668;2024-01-06T18:53:06;96015.97;;;4.66;78.60
84199;BME280;74337;46.510;6.668;2024-01-06T18:55:33;96026.41;;;4.62;77.92
84199;BME280;74337;46.510;6.668;2024-01-06T18:58:18;96019.59;;;4.51;75.26
84199;BME280;74337;46.510;6.668;2024-01-06T19:00:51;96021.66;;;4.59;78.53
84199;BME280;74337;46.510;6.668;2024-01-06T19:03:24;96007.78;;;4.57;78.09
84199;BME280;74337;46.510;6.668;2024-01-06T19:06:19;96004.81;;;4.58;78.24
84199;BME280;74337;46.510;6.668;2024-01-06T19:09:10;96007.28;;;4.55;77.14
84199;BME280;74337;46.510;6.668;2024-01-06T19:12:19;96008.31;;;4.59;78.96
84199;BME280;74337;46.510;6.668;2024-01-06T19:15:02;96004.63;;;4.50;77.96
84199;BME280;74337;46.510;6.668;2024-01-06T19:18:04;96008.69;;;4.47;78.06
84199;BME280;74337;46.510;6.668;2024-01-06T19:21:17;96010.50;;;4.52;78.34
84199;BME280;74337;46.510;6.668;2024-01-06T19:23:59;96004.06;;;4.53;77.14
84199;BME280;74337;46.510;6.668;2024-01-06T19:26:30;96006.63;;;4.39;73.35
84199;BME280;74337;46.510;6.668;2024-01-06T19:29:11;96003.72;;;4.35;77.31
84199;BME280;74337;46.510;6.668;2024-01-06T19:32:12;96002.28;;;4.48;77.80
84199;BME280;74337;46.510;6.668;2024-01-06T19:35:27;95994.50;;;4.52;77.75
84199;BME280;74337;46.510;6.668;2024-01-06T19:38:19;95995.19;;;4.33;76.71
84199;BME280;74337;46.510;6.668;2024-01-06T19:41:25;95994.63;;;4.36;75.53
84199;BME280;74337;46.510;6.668;2024-01-06T19:44:16;95983.94;;;4.41;76.30
84199;BME280;74337;46.510;6.668;2024-01-06T19:46:52;95992.34;;;4.54;76.95
84199;BME280;74337;46.510;6.668;2024-01-06T19:49:32;95993.41;;;4.24;76.83
84199;BME280;74337;46.510;6.668;2024-01-06T19:52:30;95992.94;;;4.46;76.94
84199;BME280;74337;46.510;6.668;2024-01-06T19:55:14;95989.66;;;4.25;77.09
84199;BME280;74337;46.510;6.668;2024-01-06T19:58:06;95989.19;;;4.47;77.60
84199;BME280;74337;46.510;6.668;2024-01-06T20:00:50;95990.16;;;4.32;74.57
84199;BME280;74337;46.510;6.668;2024-01-06T20:03:35;95990.09;;;4.37;76.52
84199;BME280;74337;46.510;6.668;2024-01-06T20:06:05;95988.97;;;4.43;76.79
84199;BME280;74337;46.510;6.668;2024-01-06T20:08:33;95982.88;;;4.37;77.94
84199;BME280;74337;46.510;6.668;2024-01-06T20:11:00;95989.34;;;4.31;76.34
84199;BME280;74337;46.510;6.668;2024-01-06T20:13:40;95988.84;;;4.29;77.75
84199;BME280;74337;46.510;6.668;2024-01-06T20:16:07;95976.56;;;4.28;74.96
84199;BME280;74337;46.510;6.668;2024-01-06T20:18:34;95984.53;;;4.33;76.76
84199;BME280;74337;46.510;6.668;2024-01-06T20:21:02;95981.03;;;4.38;78.05
84199;BME280;74337;46.510;6.668;2024-01-06T20:23:31;95984.53;;;4.33;77.20
84199;BME280;74337;46.510;6.668;2024-01-06T20:25:59;95975.25;;;4.26;76.31
84199;BME280;74337;46.510;6.668;2024-01-06T20:28:36;95973.59;;;4.35;77.92
84199;BME280;74337;46.510;6.668;2024-01-06T20:31:04;95977.50;;;4.13;77.68
84199;BME280;74337;46.510;6.668;2024-01-06T20:33:34;95968.13;;;4.21;77.24
84199;BME280;74337;46.510;6.668;2024-01-06T20:36:02;95975.56;;;4.24;77.92
84199;BME280;74337;46.510;6.668;2024-01-06T20:38:42;95973.91;;;4.28;78.61
84199;BME280;74337;46.510;6.668;2024-01-06T20:41:32;95963.66;;;4.11;76.54
84199;BME280;74337;46.510;6.668;2024-01-06T20:48:04;95964.38;;;4.22;74.34
84199;BME280;74337;46.510;6.668;2024-01-06T20:50:54;95966.13;;;4.03;75.25
84199;BME280;74337;46.510;6.668;2024-01-06T20:53:29;95960.47;;;4.09;76.37
84199;BME280;74337;46.510;6.668;2024-01-06T20:56:09;95953.03;;;4.06;76.31
